Time;durP1;ratioP1;P1;durP2;ratioP2;P2;SDS_P1;SDS_P2;PMS_P1;PMS_P2;Temp;Humidity;BMP_temperature;BMP_pressure;BME280_temperature;BME280_humidity;BME280_pressure;Samples;Min_cycle;Max_cycle;Signal;HPM_P1;HPM_P2
2022/02/04 00:20:44;;;;;;;;;1.50;1.50;;;;;;;;5065990;28;45336;-67
2022/02/04 00:23:15;;;;;;;;;2.25;2.25;;;;;;;;5074878;28;45411;-67
2022/02/04 00:28:38;;;;;;;;;1.75;1.00;;;;;;;;5082557;27;45473;-66
2022/02/04 00:33:31;;;;;;;;;1.25;1.25;;;;;;;;5075287;28;45448;-67
2022/02/04 00:36:04;;;;;;;;;3.50;1.00;;;;;;;;5084735;27;45601;-67
2022/02/04 00:38:34;;;;;;;;;1.00;1.00;;;;;;;;5074533;28;45423;-67
2022/02/04 00:41:05;;;;;;;;;2.75;1.75;;;;;;;;5076614;28;45415;-67
2022/02/04 00:43:31;;;;;;;;;1.50;1.50;;;;;;;;5074934;27;45374;-66
2022/02/04 00:46:09;;;;;;;;;1.75;1.75;;;;;;;;5075167;28;46206;-67
2022/02/04 00:48:47;;;;;;;;;4.00;1.00;;;;;;;;5075056;28;45477;-67
2022/02/04 00:56:41;;;;;;;;;1.25;1.25;;;;;;;;5080249;27;45379;-67
2022/02/04 01:26:25;;;;;;;;;1.00;1.00;;;;;;;;5057324;28;45345;-67
2022/02/04 01:28:52;;;;;;;;;1.00;1.00;;;;;;;;5076030;28;46449;-66
2022/02/04 01:31:20;;;;;;;;;2.00;1.00;;;;;;;;5072473;28;45326;-66
2022/02/04 01:33:46;;;;;;;;;1.00;1.00;;;;;;;;5072317;28;45519;-67
2022/02/04 01:36:11;;;;;;;;;1.00;1.00;;;;;;;;5080018;27;45365;-67
2022/02/04 01:38:37;;;;;;;;;2.33;1.00;;;;;;;;5072276;27;45588;-66
2022/02/04 01:41:04;;;;;;;;;1.00;1.00;;;;;;;;5075128;27;45344;-66
2022/02/04 01:43:29;;;;;;;;;1.67;1.67;;;;;;;;5075289;28;45501;-66
2022/02/04 01:45:56;;;;;;;;;1.00;1.00;;;;;;;;5072085;28;45548;-67
2022/02/04 01:48:22;;;;;;;;;1.25;1.25;;;;;;;;5072322;27;46499;-66
2022/02/04 01:50:48;;;;;;;;;1.00;1.00;;;;;;;;5072697;28;45494;-66
2022/02/04 01:53:14;;;;;;;;;0.00;0.00;;;;;;;;5075122;28;45379;-67
2022/02/04 01:55:41;;;;;;;;;1.00;1.00;;;;;;;;5079293;27;45450;-67
2022/02/04 01:58:06;;;;;;;;;1.00;1.00;;;;;;;;5076883;27;46178;-67
2022/02/04 02:00:31;;;;;;;;;1.67;1.33;;;;;;;;5074129;28;45376;-67
2022/02/04 02:02:56;;;;;;;;;1.00;1.00;;;;;;;;5072440;28;45438;-66
2022/02/04 02:05:21;;;;;;;;;3.50;2.00;;;;;;;;5073473;28;45230;-67
2022/02/04 02:07:47;;;;;;;;;1.33;1.00;;;;;;;;5089031;27;47498;-67
2022/02/04 02:10:18;;;;;;;;;1.00;1.00;;;;;;;;5072746;27;45766;-67
2022/02/04 02:15:26;;;;;;;;;2.00;1.00;;;;;;;;5076823;27;48083;-67
2022/02/04 02:59:57;;;;;;;;;1.00;1.00;;;;;;;;5078151;27;46163;-66
2022/02/04 03:02:22;;;;;;;;;1.00;1.00;;;;;;;;5070382;28;45395;-67
2022/02/04 03:04:47;;;;;;;;;1.00;1.00;;;;;;;;5082028;27;45363;-67
2022/02/04 03:07:13;;;;;;;;;1.00;1.00;;;;;;;;5076196;27;45530;-67
2022/02/04 03:09:38;;;;;;;;;1.67;1.67;;;;;;;;5076560;27;46092;-66
2022/02/04 03:12:04;;;;;;;;;2.25;1.00;;;;;;;;5076331;27;45415;-67
2022/02/04 03:14:29;;;;;;;;;2.00;2.00;;;;;;;;5078129;27;45372;-66
2022/02/04 03:16:55;;;;;;;;;2.00;2.00;;;;;;;;5078650;27;45305;-67
2022/02/04 03:19:22;;;;;;;;;3.50;1.00;;;;;;;;5079443;27;46115;-66
2022/02/04 03:21:48;;;;;;;;;1.00;1.00;;;;;;;;5074200;27;45342;-66
2022/02/04 03:24:18;;;;;;;;;2.00;2.00;;;;;;;;5076265;28;45480;-67
2022/02/04 03:26:57;;;;;;;;;1.00;1.00;;;;;;;;5076813;27;45417;-67
2022/02/04 03:29:29;;;;;;;;;2.00;2.00;;;;;;;;5063627;28;46136;-67
2022/02/04 03:32:01;;;;;;;;;2.33;1.00;;;;;;;;5077668;27;45340;-67
2022/02/04 03:34:27;;;;;;;;;1.00;1.00;;;;;;;;5082352;27;45379;-67
2022/02/04 03:36:52;;;;;;;;;1.00;1.00;;;;;;;;5079602;27;45428;-67
2022/02/04 03:39:17;;;;;;;;;1.00;1.00;;;;;;;;5077034;28;45399;-67
2022/02/04 03:41:42;;;;;;;;;1.00;1.00;;;;;;;;5076133;27;45376;-67
2022/02/04 03:44:08;;;;;;;;;1.00;1.00;;;;;;;;5076293;28;45344;-67
2022/02/04 03:46:33;;;;;;;;;0.33;0.33;;;;;;;;5078102;28;45391;-67
2022/02/04 03:48:58;;;;;;;;;1.67;0.33;;;;;;;;5084455;27;46140;-67
2022/02/04 03:51:23;;;;;;;;;0.33;0.33;;;;;;;;5081161;27;49131;-67
2022/02/04 03:53:49;;;;;;;;;1.00;1.00;;;;;;;;5078616;27;45433;-66
2022/02/04 03:56:14;;;;;;;;;2.25;1.00;;;;;;;;5079866;27;45339;-66
2022/02/04 03:58:41;;;;;;;;;0.33;0.33;;;;;;;;5076885;27;45530;-67
2022/02/04 04:01:07;;;;;;;;;1.50;1.00;;;;;;;;5074396;27;45469;-66
2022/02/04 04:03:32;;;;;;;;;1.75;1.00;;;;;;;;5074550;28;45343;-67
2022/02/04 04:05:57;;;;;;;;;2.00;2.00;;;;;;;;5082631;27;45431;-67
2022/02/04 04:08:23;;;;;;;;;1.00;1.00;;;;;;;;5085136;27;45465;-67
2022/02/04 04:10:50;;;;;;;;;2.25;2.00;;;;;;;;5077328;28;45446;-66
2022/02/04 04:13:16;;;;;;;;;1.00;1.00;;;;;;;;5074601;28;45253;-67
2022/02/04 04:15:41;;;;;;;;;0.75;0.75;;;;;;;;5075306;27;45443;-67
2022/02/04 04:18:11;;;;;;;;;0.67;0.67;;;;;;;;5078739;27;46482;-67
2022/02/04 04:20:37;;;;;;;;;1.00;1.00;;;;;;;;5074539;28;45570;-67
2022/02/04 04:23:02;;;;;;;;;1.00;1.00;;;;;;;;5084499;27;45454;-67
2022/02/04 04:25:27;;;;;;;;;1.00;1.00;;;;;;;;5075526;27;45561;-66
2022/02/04 04:27:53;;;;;;;;;1.50;1.50;;;;;;;;5075714;27;45415;-67
2022/02/04 04:30:21;;;;;;;;;1.00;1.00;;;;;;;;5073697;28;45333;-67
2022/02/04 04:32:47;;;;;;;;;1.00;1.00;;;;;;;;5074066;28;45292;-67
2022/02/04 04:35:15;;;;;;;;;2.00;1.00;;;;;;;;5076075;27;45584;-67
2022/02/04 04:37:51;;;;;;;;;2.00;2.00;;;;;;;;5077099;28;45683;-67
2022/02/04 05:29:12;;;;;;;;;1.00;1.00;;;;;;;;4993133;28;45439;-68
2022/02/04 05:31:37;;;;;;;;;1.00;1.00;;;;;;;;4992399;28;46292;-68
2022/02/04 05:34:03;;;;;;;;;1.00;1.00;;;;;;;;5009171;28;45289;-66
2022/02/04 05:36:28;;;;;;;;;1.00;1.00;;;;;;;;5012217;28;45305;-68
2022/02/04 05:38:54;;;;;;;;;1.00;1.00;;;;;;;;5012765;28;45634;-68
2022/02/04 05:41:26;;;;;;;;;2.00;2.00;;;;;;;;4995772;28;45634;-68
2022/02/04 05:43:53;;;;;;;;;1.75;1.00;;;;;;;;5013599;28;45347;-68
2022/02/04 05:46:25;;;;;;;;;1.00;1.00;;;;;;;;5012198;28;45356;-67
2022/02/04 05:48:53;;;;;;;;;1.00;1.00;;;;;;;;5005716;28;45577;-66
2022/02/04 05:51:46;;;;;;;;;1.75;1.75;;;;;;;;5012588;28;46095;-68
2022/02/04 05:59:47;;;;;;;;;2.75;1.75;;;;;;;;5009894;28;45447;-69
2022/02/04 06:02:43;;;;;;;;;0.75;0.75;;;;;;;;5011380;28;46181;-68
2022/02/04 06:23:26;;;;;;;;;3.67;1.00;;;;;;;;5030961;28;45423;-68
2022/02/04 06:25:52;;;;;;;;;1.33;1.33;;;;;;;;5032765;28;45341;-68
2022/02/04 06:28:17;;;;;;;;;1.00;1.00;;;;;;;;5031554;28;45545;-68
2022/02/04 06:30:45;;;;;;;;;1.00;1.00;;;;;;;;5032853;28;45502;-68
2022/02/04 06:33:10;;;;;;;;;1.00;1.00;;;;;;;;5028632;28;46406;-68
2022/02/04 06:35:35;;;;;;;;;1.50;1.50;;;;;;;;5040901;28;45452;-68
2022/02/04 06:38:01;;;;;;;;;1.25;1.00;;;;;;;;5033218;28;45424;-67
2022/02/04 06:40:26;;;;;;;;;0.25;0.25;;;;;;;;5031867;28;45931;-68
2022/02/04 06:42:54;;;;;;;;;2.00;2.00;;;;;;;;5033917;28;46274;-68
2022/02/04 06:45:20;;;;;;;;;1.50;1.50;;;;;;;;5063077;28;45401;-68
2022/02/04 06:47:46;;;;;;;;;0.75;0.75;;;;;;;;5075839;27;45399;-68
2022/02/04 06:50:11;;;;;;;;;1.00;1.00;;;;;;;;5073245;28;50249;-68
2022/02/04 06:52:37;;;;;;;;;2.00;2.00;;;;;;;;5075418;28;47085;-68
2022/02/04 06:55:02;;;;;;;;;0.33;0.33;;;;;;;;5072353;28;45438;-67
2022/02/04 06:57:27;;;;;;;;;0.25;0.25;;;;;;;;5073109;28;45566;-67
2022/02/04 06:59:53;;;;;;;;;1.00;1.00;;;;;;;;5070669;28;45532;-68
2022/02/04 07:02:21;;;;;;;;;0.50;0.50;;;;;;;;5072299;28;46385;-68
2022/02/04 07:04:46;;;;;;;;;0.67;0.67;;;;;;;;5077889;27;45468;-68
2022/02/04 07:07:12;;;;;;;;;1.00;1.00;;;;;;;;5071475;28;45542;-67
2022/02/04 07:09:56;;;;;;;;;1.00;1.00;;;;;;;;5071694;28;45304;-68
2022/02/04 07:17:28;;;;;;;;;0.33;0.33;;;;;;;;5085213;27;45396;-68
2022/02/04 07:19:55;;;;;;;;;1.00;1.00;;;;;;;;5070773;28;45540;-68
2022/02/04 07:22:26;;;;;;;;;1.00;1.00;;;;;;;;5076750;27;46267;-68
2022/02/04 07:24:56;;;;;;;;;1.00;1.00;;;;;;;;5076019;27;45387;-69
2022/02/04 07:27:22;;;;;;;;;1.00;1.00;;;;;;;;5074439;27;45563;-68
2022/02/04 07:29:50;;;;;;;;;1.00;1.00;;;;;;;;5069358;28;45986;-68
2022/02/04 07:32:21;;;;;;;;;1.00;1.00;;;;;;;;5064297;28;47475;-68
2022/02/04 07:42:46;;;;;;;;;0.00;0.00;;;;;;;;5071299;28;45873;-69
2022/02/04 07:45:11;;;;;;;;;1.00;1.00;;;;;;;;5071673;28;45567;-69
2022/02/04 07:47:37;;;;;;;;;1.25;1.25;;;;;;;;5065653;27;45420;-69
2022/02/04 07:50:03;;;;;;;;;1.00;1.00;;;;;;;;5076981;27;45324;-68
2022/02/04 07:52:28;;;;;;;;;2.00;2.00;;;;;;;;5075654;28;46326;-68
2022/02/04 07:54:54;;;;;;;;;2.00;1.00;;;;;;;;5078108;27;45423;-68
2022/02/04 07:57:19;;;;;;;;;1.00;1.00;;;;;;;;5075991;28;45402;-68
2022/02/04 07:59:47;;;;;;;;;1.00;1.00;;;;;;;;5077056;27;45303;-68
2022/02/04 08:02:12;;;;;;;;;1.00;1.00;;;;;;;;5074507;27;45728;-69
2022/02/04 08:04:39;;;;;;;;;1.00;1.00;;;;;;;;5077545;28;45419;-68
2022/02/04 08:07:09;;;;;;;;;1.25;1.25;;;;;;;;5070720;27;45454;-69
2022/02/04 08:22:56;;;;;;;;;1.33;0.33;;;;;;;;5079754;27;45405;-69
2022/02/04 08:31:00;;;;;;;;;0.75;0.75;;;;;;;;5078724;27;45426;-69
2022/02/04 08:57:11;;;;;;;;;0.25;0.25;;;;;;;;5018234;28;45569;-68
2022/02/04 08:59:54;;;;;;;;;0.50;0.00;;;;;;;;5013377;28;45425;-68
2022/02/04 09:02:33;;;;;;;;;1.00;1.00;;;;;;;;5029804;28;45330;-68
2022/02/04 09:04:59;;;;;;;;;0.00;0.00;;;;;;;;5013206;28;45265;-68
2022/02/04 09:07:31;;;;;;;;;1.00;1.00;;;;;;;;5017504;28;45513;-68
2022/02/04 09:10:00;;;;;;;;;1.00;1.00;;;;;;;;5018364;28;45433;-68
2022/02/04 09:22:55;;;;;;;;;0.00;0.00;;;;;;;;5020457;28;45507;-68
2022/02/04 09:25:20;;;;;;;;;1.00;1.00;;;;;;;;5014541;28;47175;-68
2022/02/04 09:27:46;;;;;;;;;0.67;0.67;;;;;;;;5021046;28;45285;-69
2022/02/04 09:30:13;;;;;;;;;1.00;0.00;;;;;;;;5026899;28;45619;-68
2022/02/04 09:32:39;;;;;;;;;1.00;1.00;;;;;;;;5067140;28;45373;-68
2022/02/04 09:35:05;;;;;;;;;1.75;0.75;;;;;;;;5081950;27;46148;-68
2022/02/04 09:37:31;;;;;;;;;0.33;0.33;;;;;;;;5076151;28;45314;-68
2022/02/04 09:39:56;;;;;;;;;1.00;1.00;;;;;;;;5074229;28;45379;-68
2022/02/04 09:42:21;;;;;;;;;0.67;0.67;;;;;;;;5074127;27;45343;-68
2022/02/04 09:44:47;;;;;;;;;1.00;1.00;;;;;;;;5074550;28;45453;-68
2022/02/04 09:47:23;;;;;;;;;0.00;0.00;;;;;;;;5075563;27;45222;-68
2022/02/04 09:49:54;;;;;;;;;0.00;0.00;;;;;;;;5071934;28;45369;-68
2022/02/04 10:14:52;;;;;;;;;0.00;0.00;;;;;;;;5012685;28;45437;-69
2022/02/04 10:19:30;;;;;;;;;1.00;1.00;;;;;;;;5015115;28;45341;-68
2022/02/04 10:21:58;;;;;;;;;0.00;0.00;;;;;;;;5010065;28;45617;-68
2022/02/04 10:24:26;;;;;;;;;0.75;0.50;;;;;;;;5005469;28;46694;-69
2022/02/04 10:27:10;;;;;;;;;0.33;0.33;;;;;;;;5013275;28;45425;-69
2022/02/04 10:29:36;;;;;;;;;0.67;0.67;;;;;;;;4995681;28;45332;-69
2022/02/04 10:32:01;;;;;;;;;0.00;0.00;;;;;;;;5011607;28;45363;-69
2022/02/04 10:34:28;;;;;;;;;1.33;1.00;;;;;;;;5010586;28;45748;-68
2022/02/04 10:37:17;;;;;;;;;0.00;0.00;;;;;;;;5009635;28;46491;-69
2022/02/04 10:50:59;;;;;;;;;0.00;0.00;;;;;;;;4973385;28;45606;-68
2022/02/04 11:01:58;;;;;;;;;0.00;0.00;;;;;;;;4972301;28;45907;-68
2022/02/04 11:04:35;;;;;;;;;2.33;1.00;;;;;;;;4975089;28;45393;-69
2022/02/04 11:34:26;;;;;;;;;0.00;0.00;;;;;;;;5074565;27;45301;-69
2022/02/04 11:48:41;;;;;;;;;0.00;0.00;;;;;;;;5073252;27;45325;-70
2022/02/04 11:54:30;;;;;;;;;0.00;0.00;;;;;;;;5074231;28;45424;-69
2022/02/04 11:57:02;;;;;;;;;0.00;0.00;;;;;;;;5074324;27;45586;-69
2022/02/04 11:59:35;;;;;;;;;1.00;1.00;;;;;;;;5075813;28;45348;-69
2022/02/04 12:02:01;;;;;;;;;0.00;0.00;;;;;;;;5076928;27;45418;-69
2022/02/04 12:04:26;;;;;;;;;0.00;0.00;;;;;;;;5076242;28;45300;-70
2022/02/04 12:06:53;;;;;;;;;0.00;0.00;;;;;;;;5075894;27;45454;-69
2022/02/04 12:09:37;;;;;;;;;0.00;0.00;;;;;;;;5074334;27;45423;-69
2022/02/04 12:12:03;;;;;;;;;0.00;0.00;;;;;;;;5073835;28;45411;-69
2022/02/04 12:14:32;;;;;;;;;0.33;0.33;;;;;;;;5074542;28;46719;-69
2022/02/04 12:17:08;;;;;;;;;0.67;0.67;;;;;;;;5076760;27;45426;-70
2022/02/04 12:19:34;;;;;;;;;2.00;0.00;;;;;;;;5077328;28;45291;-70
2022/02/04 12:21:59;;;;;;;;;1.00;1.00;;;;;;;;5075318;28;45399;-69
2022/02/04 12:24:36;;;;;;;;;0.33;0.33;;;;;;;;5073843;27;46324;-70
2022/02/04 12:27:20;;;;;;;;;1.00;0.00;;;;;;;;5073811;28;45446;-70
2022/02/04 12:29:45;;;;;;;;;1.00;1.00;;;;;;;;5073777;27;45293;-68
2022/02/04 12:32:11;;;;;;;;;0.00;0.00;;;;;;;;5075439;27;45331;-68
2022/02/04 12:34:45;;;;;;;;;1.00;0.00;;;;;;;;5075555;28;46433;-68
2022/02/04 12:37:11;;;;;;;;;0.33;0.00;;;;;;;;5075506;27;45533;-70
2022/02/04 12:39:36;;;;;;;;;0.00;0.00;;;;;;;;5081382;27;45446;-68
2022/02/04 12:42:03;;;;;;;;;0.33;0.33;;;;;;;;5073894;27;45439;-71
2022/02/04 12:44:31;;;;;;;;;1.00;1.00;;;;;;;;5073880;28;45514;-71
2022/02/04 12:47:01;;;;;;;;;0.00;0.00;;;;;;;;5076622;27;46298;-69
2022/02/04 12:49:28;;;;;;;;;0.00;0.00;;;;;;;;5076099;28;45527;-70
2022/02/04 12:52:30;;;;;;;;;0.00;0.00;;;;;;;;5074902;28;45592;-70
2022/02/04 12:55:08;;;;;;;;;0.33;0.33;;;;;;;;5066286;28;47085;-71
2022/02/04 12:57:43;;;;;;;;;2.00;0.00;;;;;;;;5067332;28;45413;-71
2022/02/04 13:10:31;;;;;;;;;0.00;0.00;;;;;;;;5074527;28;45273;-71
2022/02/04 13:13:01;;;;;;;;;1.00;0.00;;;;;;;;5074178;27;45889;-70
2022/02/04 13:15:28;;;;;;;;;1.00;1.00;;;;;;;;5075589;27;46573;-71
2022/02/04 13:17:54;;;;;;;;;1.00;1.00;;;;;;;;5074533;28;45296;-71
2022/02/04 13:20:21;;;;;;;;;2.00;0.33;;;;;;;;5074357;28;45333;-71
2022/02/04 13:22:47;;;;;;;;;3.00;0.67;;;;;;;;5076786;28;45485;-71
2022/02/04 13:25:15;;;;;;;;;0.00;0.00;;;;;;;;5073261;27;46120;-71
2022/02/04 13:28:14;;;;;;;;;0.00;0.00;;;;;;;;5074023;28;45320;-71
2022/02/04 13:30:49;;;;;;;;;0.00;0.00;;;;;;;;5012328;28;45400;-71
2022/02/04 13:33:20;;;;;;;;;1.00;1.00;;;;;;;;5010767;28;45570;-71
2022/02/04 13:35:57;;;;;;;;;0.00;0.00;;;;;;;;5012354;28;46893;-71
2022/02/04 13:41:22;;;;;;;;;0.00;0.00;;;;;;;;5010023;28;45517;-71
2022/02/04 13:46:44;;;;;;;;;0.00;0.00;;;;;;;;4979117;28;46397;-71
2022/02/04 13:49:59;;;;;;;;;0.33;0.33;;;;;;;;4979221;28;45506;-71
2022/02/04 13:52:24;;;;;;;;;0.67;0.33;;;;;;;;4971410;28;46541;-71
2022/02/04 13:55:25;;;;;;;;;0.00;0.00;;;;;;;;4988052;28;45703;-71
2022/02/04 14:03:20;;;;;;;;;0.67;0.67;;;;;;;;4980105;28;45286;-70
2022/02/04 14:05:59;;;;;;;;;0.33;0.33;;;;;;;;4973121;28;45485;-70
2022/02/04 14:08:30;;;;;;;;;0.00;0.00;;;;;;;;4963925;28;47407;-70
2022/02/04 14:10:58;;;;;;;;;0.00;0.00;;;;;;;;4969367;28;45398;-71
2022/02/04 14:13:24;;;;;;;;;1.00;0.00;;;;;;;;4973573;28;45467;-71
2022/02/04 14:15:55;;;;;;;;;0.00;0.00;;;;;;;;4974123;28;45566;-70
2022/02/04 14:18:21;;;;;;;;;2.00;0.00;;;;;;;;4972642;28;46559;-70
2022/02/04 14:20:46;;;;;;;;;0.67;0.00;;;;;;;;4972800;28;45544;-70
2022/02/04 14:23:12;;;;;;;;;0.00;0.00;;;;;;;;4994475;28;45719;-70
2022/02/04 14:25:44;;;;;;;;;0.00;0.00;;;;;;;;5034945;28;45485;-70
2022/02/04 14:28:12;;;;;;;;;2.00;0.67;;;;;;;;5033335;28;45558;-71
2022/02/04 14:30:38;;;;;;;;;0.67;0.00;;;;;;;;5031796;28;45522;-70
2022/02/04 14:34:34;;;;;;;;;0.00;0.00;;;;;;;;5033046;28;45389;-70
2022/02/04 14:36:12;;;;;;;;;0.00;0.00;;;;;;;;5016366;28;45390;-70
2022/02/04 14:52:25;;;;;;;;;0.00;0.00;;;;;;;;5030482;28;45621;-70
2022/02/04 15:02:44;;;;;;;;;0.00;0.00;;;;;;;;5032643;28;45373;-71
2022/02/04 15:05:14;;;;;;;;;1.00;1.00;;;;;;;;5034346;28;49916;-71
2022/02/04 15:07:41;;;;;;;;;0.33;0.33;;;;;;;;5052305;28;45424;-71
2022/02/04 15:10:08;;;;;;;;;0.67;0.67;;;;;;;;5053378;28;46437;-71
2022/02/04 15:12:34;;;;;;;;;0.75;0.75;;;;;;;;5052755;28;45379;-70
2022/02/04 15:14:59;;;;;;;;;0.00;0.00;;;;;;;;5052575;28;45404;-71
2022/02/04 15:17:24;;;;;;;;;0.50;0.50;;;;;;;;5051818;28;45510;-71
2022/02/04 15:19:52;;;;;;;;;1.33;0.00;;;;;;;;5054939;28;46605;-72
2022/02/04 15:22:23;;;;;;;;;2.67;0.00;;;;;;;;5050882;28;45488;-71
2022/02/04 15:24:53;;;;;;;;;1.00;1.00;;;;;;;;5052552;28;45375;-73
2022/02/04 15:27:18;;;;;;;;;1.00;1.00;;;;;;;;5052571;28;45510;-71
2022/02/04 15:29:46;;;;;;;;;0.00;0.00;;;;;;;;5048290;28;45488;-72
2022/02/04 15:32:12;;;;;;;;;0.00;0.00;;;;;;;;5049606;28;45484;-71
2022/02/04 15:34:37;;;;;;;;;0.00;0.00;;;;;;;;5049897;28;45554;-72
2022/02/04 15:37:03;;;;;;;;;2.00;0.33;;;;;;;;5059398;28;45583;-73
2022/02/04 15:39:29;;;;;;;;;0.00;0.00;;;;;;;;5049234;28;46020;-69
2022/02/04 15:41:56;;;;;;;;;0.33;0.33;;;;;;;;5041519;28;45305;-72
2022/02/04 15:49:33;;;;;;;;;1.00;0.00;;;;;;;;5054971;28;45412;-71
2022/02/04 15:57:29;;;;;;;;;1.00;1.00;;;;;;;;5051131;28;45520;-70
2022/02/04 16:04:45;;;;;;;;;0.00;0.00;;;;;;;;5054606;28;45317;-71
2022/02/04 16:07:10;;;;;;;;;0.00;0.00;;;;;;;;5070134;27;45853;-70
2022/02/04 16:09:36;;;;;;;;;0.33;0.33;;;;;;;;5072780;27;45569;-71
2022/02/04 16:12:10;;;;;;;;;0.00;0.00;;;;;;;;5076132;27;45454;-70
2022/02/04 16:14:49;;;;;;;;;1.00;1.00;;;;;;;;5078289;27;45393;-71
2022/02/04 16:17:29;;;;;;;;;1.00;0.00;;;;;;;;5076795;27;45211;-70
2022/02/04 16:25:37;;;;;;;;;0.00;0.00;;;;;;;;5076973;27;45391;-71
2022/02/04 16:30:49;;;;;;;;;0.00;0.00;;;;;;;;5074727;27;45826;-71
2022/02/04 16:33:15;;;;;;;;;0.00;0.00;;;;;;;;5075448;27;45522;-71
2022/02/04 16:35:40;;;;;;;;;0.00;0.00;;;;;;;;5074907;27;45453;-70
2022/02/04 16:38:06;;;;;;;;;1.00;0.00;;;;;;;;5076184;27;45387;-70
2022/02/04 16:40:32;;;;;;;;;2.00;0.00;;;;;;;;5077038;27;46755;-71
2022/02/04 16:42:57;;;;;;;;;0.67;0.00;;;;;;;;5074022;28;45532;-71
2022/02/04 16:45:23;;;;;;;;;1.00;0.00;;;;;;;;5075676;27;45465;-71
2022/02/04 16:47:51;;;;;;;;;1.00;0.00;;;;;;;;5047371;27;45498;-72
2022/02/04 16:50:21;;;;;;;;;0.00;0.00;;;;;;;;5075290;27;46407;-71
2022/02/04 16:52:46;;;;;;;;;0.00;0.00;;;;;;;;5080468;27;45344;-71
2022/02/04 16:55:11;;;;;;;;;0.00;0.00;;;;;;;;5078717;27;45306;-71
2022/02/04 16:57:37;;;;;;;;;1.67;0.67;;;;;;;;5074507;27;45414;-70
2022/02/04 17:00:13;;;;;;;;;0.00;0.00;;;;;;;;5083126;27;47014;-70
2022/02/04 17:02:41;;;;;;;;;0.00;0.00;;;;;;;;5084340;27;45327;-70
2022/02/04 17:05:06;;;;;;;;;4.33;0.67;;;;;;;;5075916;27;45296;-71
2022/02/04 17:07:35;;;;;;;;;0.00;0.00;;;;;;;;5074390;28;45441;-71
2022/02/04 17:10:00;;;;;;;;;2.00;0.33;;;;;;;;5077478;27;46258;-70
2022/02/04 17:12:39;;;;;;;;;0.33;0.33;;;;;;;;5074383;28;45410;-71
2022/02/04 17:15:05;;;;;;;;;0.00;0.00;;;;;;;;5079714;27;45410;-70
2022/02/04 17:17:30;;;;;;;;;1.00;1.00;;;;;;;;5074213;28;45576;-71
2022/02/04 17:20:06;;;;;;;;;0.00;0.00;;;;;;;;5076747;28;46373;-70
2022/02/04 17:22:33;;;;;;;;;0.33;0.00;;;;;;;;5078423;27;45435;-71
2022/02/04 17:24:58;;;;;;;;;0.00;0.00;;;;;;;;5073528;27;46035;-71
2022/02/04 17:27:23;;;;;;;;;1.00;0.00;;;;;;;;5073180;28;45326;-70
2022/02/04 17:29:49;;;;;;;;;1.00;0.00;;;;;;;;5079355;27;45447;-70
2022/02/04 17:32:14;;;;;;;;;0.00;0.00;;;;;;;;5074271;27;45448;-70
2022/02/04 17:34:41;;;;;;;;;1.00;0.00;;;;;;;;5075304;28;45347;-71
2022/02/04 17:37:06;;;;;;;;;0.00;0.00;;;;;;;;5073307;28;45601;-71
2022/02/04 17:39:32;;;;;;;;;0.00;0.00;;;;;;;;5074326;28;46790;-71
2022/02/04 17:41:58;;;;;;;;;0.00;0.00;;;;;;;;5074480;28;45596;-71
2022/02/04 17:44:24;;;;;;;;;0.00;0.00;;;;;;;;5074711;28;45494;-71
2022/02/04 17:46:50;;;;;;;;;0.00;0.00;;;;;;;;5086588;27;45371;-70
2022/02/04 17:51:51;;;;;;;;;1.67;0.00;;;;;;;;5071606;27;45471;-70
2022/02/04 17:54:21;;;;;;;;;1.00;0.00;;;;;;;;5058048;27;45374;-71
2022/02/04 17:57:01;;;;;;;;;1.00;1.00;;;;;;;;5073053;27;45443;-71
2022/02/04 18:07:24;;;;;;;;;0.33;0.00;;;;;;;;5013321;28;45353;-71
2022/02/04 18:09:50;;;;;;;;;1.00;1.00;;;;;;;;5013158;28;45428;-71
2022/02/04 18:12:16;;;;;;;;;0.00;0.00;;;;;;;;5027229;28;45376;-71
2022/02/04 18:14:43;;;;;;;;;0.00;0.00;;;;;;;;5027002;28;45475;-70
2022/02/04 18:17:09;;;;;;;;;0.00;0.00;;;;;;;;5014642;28;45406;-71
2022/02/04 18:19:34;;;;;;;;;0.00;0.00;;;;;;;;5013295;28;47039;-70
2022/02/04 18:22:01;;;;;;;;;0.00;0.00;;;;;;;;5012938;28;45585;-70
2022/02/04 18:24:27;;;;;;;;;0.00;0.00;;;;;;;;5013908;28;45374;-70
2022/02/04 18:26:52;;;;;;;;;0.00;0.00;;;;;;;;5013111;28;45373;-71
2022/02/04 18:29:17;;;;;;;;;1.00;0.00;;;;;;;;5011975;28;45569;-71
2022/02/04 18:31:43;;;;;;;;;1.67;0.33;;;;;;;;5023896;28;45480;-71
2022/02/04 18:34:10;;;;;;;;;0.00;0.00;;;;;;;;5015268;28;45459;-70
2022/02/04 18:36:36;;;;;;;;;3.67;0.00;;;;;;;;5012477;28;45548;-70
2022/02/04 18:44:12;;;;;;;;;0.00;0.00;;;;;;;;5074685;28;45294;-70
2022/02/04 18:49:25;;;;;;;;;0.00;0.00;;;;;;;;5077385;27;45415;-70
2022/02/04 18:59:18;;;;;;;;;0.00;0.00;;;;;;;;5073102;28;45535;-71
2022/02/04 19:01:44;;;;;;;;;0.00;0.00;;;;;;;;5075638;28;45383;-70
2022/02/04 19:04:14;;;;;;;;;0.33;0.33;;;;;;;;5075708;27;45174;-71
2022/02/04 19:06:45;;;;;;;;;3.00;1.00;;;;;;;;5081134;27;45328;-70
2022/02/04 19:09:10;;;;;;;;;0.00;0.00;;;;;;;;5073057;27;45473;-71
2022/02/04 19:11:40;;;;;;;;;0.00;0.00;;;;;;;;5073779;27;45454;-70
2022/02/04 19:19:19;;;;;;;;;0.00;0.00;;;;;;;;5070510;28;46108;-70
2022/02/04 19:21:58;;;;;;;;;0.33;0.33;;;;;;;;5072854;28;45347;-70
2022/02/04 19:24:27;;;;;;;;;0.00;0.00;;;;;;;;5070659;27;45390;-71
2022/02/04 19:26:52;;;;;;;;;2.00;0.00;;;;;;;;5070995;28;45530;-70
2022/02/04 19:29:17;;;;;;;;;0.00;0.00;;;;;;;;5071681;28;45598;-71
2022/02/04 19:31:52;;;;;;;;;1.00;1.00;;;;;;;;5073990;27;46355;-70
2022/02/04 19:34:18;;;;;;;;;2.00;1.00;;;;;;;;5075305;27;45297;-71
2022/02/04 19:36:44;;;;;;;;;1.00;1.00;;;;;;;;5075036;27;45431;-70
2022/02/04 19:39:09;;;;;;;;;1.67;1.00;;;;;;;;5072677;28;46445;-70
2022/02/04 19:41:35;;;;;;;;;1.00;1.00;;;;;;;;5076120;27;45474;-70
2022/02/04 19:44:01;;;;;;;;;1.00;1.00;;;;;;;;5077681;27;45325;-70
2022/02/04 19:46:31;;;;;;;;;0.00;0.00;;;;;;;;5075932;27;46308;-70
2022/02/04 19:48:59;;;;;;;;;2.00;0.67;;;;;;;;5074640;28;45596;-70
2022/02/04 19:51:32;;;;;;;;;1.00;1.00;;;;;;;;5076864;28;45321;-70
2022/02/04 20:26:04;;;;;;;;;1.00;1.00;;;;;;;;5076686;27;45425;-69
2022/02/04 20:28:30;;;;;;;;;1.67;1.00;;;;;;;;5079022;27;45423;-70
2022/02/04 20:30:55;;;;;;;;;0.67;0.00;;;;;;;;5083785;27;45538;-69
2022/02/04 20:33:20;;;;;;;;;2.33;1.00;;;;;;;;5068218;28;45838;-70
2022/02/04 20:35:48;;;;;;;;;1.00;1.00;;;;;;;;5076347;27;45439;-70
2022/02/04 20:38:20;;;;;;;;;1.00;1.00;;;;;;;;5075456;27;45913;-71
2022/02/04 20:40:54;;;;;;;;;1.00;1.00;;;;;;;;5079590;27;46635;-70
2022/02/04 20:43:20;;;;;;;;;4.67;1.67;;;;;;;;5073513;28;45597;-70
2022/02/04 20:45:46;;;;;;;;;1.00;1.00;;;;;;;;5074827;27;45336;-70
2022/02/04 20:48:11;;;;;;;;;1.67;1.67;;;;;;;;5083619;27;45489;-71
2022/02/04 20:50:37;;;;;;;;;2.00;0.33;;;;;;;;5077196;27;46081;-70
2022/02/04 20:53:02;;;;;;;;;2.00;1.00;;;;;;;;5076128;28;45280;-70
2022/02/04 20:55:27;;;;;;;;;1.00;1.00;;;;;;;;5075737;28;45514;-71
2022/02/04 20:57:57;;;;;;;;;1.00;1.00;;;;;;;;5075504;27;45592;-70
2022/02/04 21:00:28;;;;;;;;;1.33;0.00;;;;;;;;5073903;28;47362;-71
2022/02/04 21:03:05;;;;;;;;;3.00;1.00;;;;;;;;5085742;27;45489;-70
2022/02/04 21:05:46;;;;;;;;;1.00;0.00;;;;;;;;5063346;28;45456;-70
2022/02/04 21:13:59;;;;;;;;;1.00;1.00;;;;;;;;5075320;27;45442;-70
2022/02/04 21:16:25;;;;;;;;;2.67;2.67;;;;;;;;5077473;27;45470;-70
2022/02/04 21:18:51;;;;;;;;;1.00;1.00;;;;;;;;5074489;28;45303;-71
2022/02/04 21:21:17;;;;;;;;;1.75;1.75;;;;;;;;5073410;28;48756;-70
2022/02/04 21:23:42;;;;;;;;;2.50;1.00;;;;;;;;5074666;28;45434;-70
2022/02/04 21:26:07;;;;;;;;;1.67;1.67;;;;;;;;5080343;27;45233;-70
2022/02/04 21:28:34;;;;;;;;;1.25;1.25;;;;;;;;5074734;28;45309;-69
2022/02/04 21:31:00;;;;;;;;;1.25;1.25;;;;;;;;5076562;27;46664;-70
2022/02/04 21:38:39;;;;;;;;;3.00;1.00;;;;;;;;5059183;27;45438;-70
2022/02/04 21:41:05;;;;;;;;;2.00;1.75;;;;;;;;5075591;27;45465;-69
2022/02/04 21:43:30;;;;;;;;;2.00;2.00;;;;;;;;5080842;27;45591;-69
2022/02/04 21:45:59;;;;;;;;;0.00;0.00;;;;;;;;5078272;27;45241;-69
2022/02/04 21:48:26;;;;;;;;;1.75;1.75;;;;;;;;5074240;27;45412;-69
2022/02/04 21:50:53;;;;;;;;;3.50;1.00;;;;;;;;5073976;27;45422;-69
2022/02/04 21:53:18;;;;;;;;;2.25;2.25;;;;;;;;5075554;27;45434;-69
2022/02/04 21:55:47;;;;;;;;;3.00;2.00;;;;;;;;5075486;28;45616;-69
2022/02/04 21:58:13;;;;;;;;;1.00;1.00;;;;;;;;5072716;27;45480;-69
2022/02/04 22:00:38;;;;;;;;;1.00;1.00;;;;;;;;5072248;27;45281;-69
2022/02/04 22:03:05;;;;;;;;;3.00;3.00;;;;;;;;5050632;28;45236;-69
2022/02/04 22:05:30;;;;;;;;;2.00;2.00;;;;;;;;5072812;28;45509;-69
2022/02/04 22:07:59;;;;;;;;;0.00;0.00;;;;;;;;5088629;27;45351;-70
2022/02/04 22:13:32;;;;;;;;;3.50;1.75;;;;;;;;5074286;27;45343;-69
2022/02/04 22:16:38;;;;;;;;;1.00;1.00;;;;;;;;5073498;27;45548;-69
2022/02/04 22:24:11;;;;;;;;;1.00;1.00;;;;;;;;5072370;27;45363;-69
2022/02/04 22:26:37;;;;;;;;;1.00;1.00;;;;;;;;5072359;27;45329;-69
2022/02/04 22:29:03;;;;;;;;;1.00;1.00;;;;;;;;5075585;28;45464;-69
2022/02/04 22:31:29;;;;;;;;;1.75;1.00;;;;;;;;5074574;28;47246;-69
2022/02/04 22:34:13;;;;;;;;;1.00;1.00;;;;;;;;5075660;27;45543;-67
2022/02/04 22:44:50;;;;;;;;;1.00;1.00;;;;;;;;5071163;27;45355;-70
2022/02/04 22:49:55;;;;;;;;;2.00;2.00;;;;;;;;5075511;28;45276;-70
2022/02/04 22:52:39;;;;;;;;;1.00;1.00;;;;;;;;5065398;28;45582;-70
2022/02/04 22:58:05;;;;;;;;;1.33;1.00;;;;;;;;5011440;28;45422;-70
2022/02/04 23:00:43;;;;;;;;;3.33;2.67;;;;;;;;5009464;28;45474;-70
2022/02/04 23:03:14;;;;;;;;;2.00;1.00;;;;;;;;5010045;28;46537;-70